Time;durP1;ratioP1;P1;durP2;ratioP2;P2;SDS_P1;SDS_P2;PMS_P1;PMS_P2;Temp;Humidity;BMP_temperature;BMP_pressure;BME280_temperature;BME280_humidity;BME280_pressure;Samples;Min_cycle;Max_cycle;Signal;HPM_P1;HPM_P2
2024/01/17 00:00:10;;;;;;;;;;;;;;;;;;1902920;28;7096;-64
2024/01/17 00:01:09;;;;;;;;;;;;;;;;;;1903794;28;7015;-64
2024/01/17 00:02:06;;;;;;;;;;;;;;;;;;1903612;28;8060;-63
2024/01/17 00:03:04;;;;;;;;;;;;;;;;;;1904885;28;7012;-64
2024/01/17 00:04:01;;;;;;;;;;;;;;;;;;1903136;28;7020;-64
2024/01/17 00:04:59;;;;;;;;;;;;;;;;;;1903685;28;7189;-65
2024/01/17 00:05:56;;;;;;;;;;;;;;;;;;1907516;28;7049;-64
2024/01/17 00:06:55;;;;;;;;;;;;;;;;;;1909861;28;7008;-63
2024/01/17 00:07:52;;;;;;;;;;;;;;;;;;1903441;28;7009;-64
2024/01/17 00:08:50;;;;;;;;;;;;;;;;;;1904486;28;7148;-64
2024/01/17 00:09:47;;;;;;;;;;;;;;;;;;1903007;28;7200;-64
2024/01/17 00:10:45;;;;;;;;;;;;;;;;;;1903344;28;7015;-63
2024/01/17 00:11:42;;;;;;;;;;;;;;;;;;1903504;28;8416;-63
2024/01/17 00:12:40;;;;;;;;;;;;;;;;;;1908175;28;7334;-65
2024/01/17 00:13:37;;;;;;;;;;;;;;;;;;1903078;28;7208;-63
2024/01/17 00:14:34;;;;;;;;;;;;;;;;;;1900547;28;7090;-64
2024/01/17 00:15:32;;;;;;;;;;;;;;;;;;1896994;28;7070;-63
2024/01/17 00:16:29;;;;;;;;;;;;;;;;;;1895702;28;7128;-65
2024/01/17 00:17:27;;;;;;;;;;;;;;;;;;1896150;28;7016;-64
2024/01/17 00:18:25;;;;;;;;;;;;;;;;;;1896102;28;7132;-65
2024/01/17 00:19:22;;;;;;;;;;;;;;;;;;1901051;28;7016;-64
2024/01/17 00:20:20;;;;;;;;;;;;;;;;;;1900000;28;8036;-64
2024/01/17 00:21:18;;;;;;;;;;;;;;;;;;1903026;28;8198;-64
2024/01/17 00:22:16;;;;;;;;;;;;;;;;;;1903096;28;7013;-65
2024/01/17 00:23:14;;;;;;;;;;;;;;;;;;1896911;28;7304;-64
2024/01/17 00:24:11;;;;;;;;;;;;;;;;;;1894871;28;7007;-63
2024/01/17 00:25:09;;;;;;;;;;;;;;;;;;1894551;28;7009;-65
2024/01/17 00:26:06;;;;;;;;;;;;;;;;;;1896435;28;7091;-64
2024/01/17 00:27:05;;;;;;;;;;;;;;;;;;1896124;28;7211;-64
2024/01/17 00:28:02;;;;;;;;;;;;;;;;;;1896328;28;7001;-63
2024/01/17 00:29:00;;;;;;;;;;;;;;;;;;1896678;28;7020;-63
2024/01/17 00:29:57;;;;;;;;;;;;;;;;;;1895862;28;7008;-65
2024/01/17 00:30:57;;;;;;;;;;;;;;;;;;1896162;28;7299;-64
2024/01/17 00:31:54;;;;;;;;;;;;;;;;;;1903552;28;8036;-64
2024/01/17 00:32:51;;;;;;;;;;;;;;;;;;1902217;28;8094;-64
2024/01/17 00:33:49;;;;;;;;;;;;;;;;;;1898962;28;7040;-63
2024/01/17 00:34:46;;;;;;;;;;;;;;;;;;1901110;28;7041;-63
2024/01/17 00:35:44;;;;;;;;;;;;;;;;;;1896920;28;7048;-64
2024/01/17 00:36:41;;;;;;;;;;;;;;;;;;1895681;28;8009;-63
2024/01/17 00:37:39;;;;;;;;;;;;;;;;;;1897605;28;7911;-64
2024/01/17 00:38:37;;;;;;;;;;;;;;;;;;1899982;28;7997;-63
2024/01/17 00:39:34;;;;;;;;;;;;;;;;;;1904649;28;7140;-64
2024/01/17 00:40:31;;;;;;;;;;;;;;;;;;1899224;28;7060;-64
2024/01/17 00:41:29;;;;;;;;;;;;;;;;;;1897724;28;7053;-63
2024/01/17 00:42:27;;;;;;;;;;;;;;;;;;1897948;28;7012;-64
2024/01/17 00:43:24;;;;;;;;;;;;;;;;;;1899266;28;8035;-64
2024/01/17 00:44:26;;;;;;;;;;;;;;;;;;1900239;28;7045;-63
2024/01/17 00:45:24;;;;;;;;;;;;;;;;;;1904836;28;7350;-63
2024/01/17 00:46:21;;;;;;;;;;;;;;;;;;1900688;28;7044;-65
2024/01/17 00:47:19;;;;;;;;;;;;;;;;;;1896250;28;7472;-66
2024/01/17 00:48:18;;;;;;;;;;;;;;;;;;1897480;28;8112;-64
2024/01/17 00:49:16;;;;;;;;;;;;;;;;;;1899894;28;8047;-64
2024/01/17 00:50:14;;;;;;;;;;;;;;;;;;1905511;28;7028;-65
2024/01/17 00:51:20;;;;;;;;;;;;;;;;;;1904623;28;7091;-64
2024/01/17 00:52:18;;;;;;;;;;;;;;;;;;1897406;28;7123;-62
2024/01/17 00:53:15;;;;;;;;;;;;;;;;;;1899515;28;7132;-63
2024/01/17 00:54:13;;;;;;;;;;;;;;;;;;1897410;28;7092;-65
2024/01/17 00:55:11;;;;;;;;;;;;;;;;;;1897666;28;7016;-64
2024/01/17 00:56:08;;;;;;;;;;;;;;;;;;1898055;28;7007;-64
2024/01/17 00:57:06;;;;;;;;;;;;;;;;;;1897356;28;7383;-62
2024/01/17 00:58:03;;;;;;;;;;;;;;;;;;1898135;28;7148;-64
2024/01/17 00:59:00;;;;;;;;;;;;;;;;;;1897103;28;7111;-65
2024/01/17 00:59:58;;;;;;;;;;;;;;;;;;1900650;28;7051;-64
2024/01/17 01:00:55;;;;;;;;;;;;;;;;;;1904554;28;8035;-63
2024/01/17 01:01:53;;;;;;;;;;;;;;;;;;1905141;28;7008;-63
2024/01/17 01:02:51;;;;;;;;;;;;;;;;;;1896534;28;7036;-63
2024/01/17 01:03:48;;;;;;;;;;;;;;;;;;1898258;28;7115;-64
2024/01/17 01:04:46;;;;;;;;;;;;;;;;;;1897752;28;7144;-64
2024/01/17 01:05:46;;;;;;;;;;;;;;;;;;1897480;28;8988;-63
2024/01/17 01:06:43;;;;;;;;;;;;;;;;;;1897518;28;7005;-63
2024/01/17 01:07:40;;;;;;;;;;;;;;;;;;1897432;28;7060;-63
2024/01/17 01:08:38;;;;;;;;;;;;;;;;;;1896889;28;7074;-65
2024/01/17 01:09:35;;;;;;;;;;;;;;;;;;1897218;28;7029;-64
2024/01/17 01:10:33;;;;;;;;;;;;;;;;;;1896979;28;7008;-64
2024/01/17 01:11:34;;;;;;;;;;;;;;;;;;1897720;28;7008;-63
2024/01/17 01:12:32;;;;;;;;;;;;;;;;;;1905483;28;7098;-63
2024/01/17 01:13:30;;;;;;;;;;;;;;;;;;1905361;28;7008;-64
2024/01/17 01:14:27;;;;;;;;;;;;;;;;;;1904441;28;7090;-64
2024/01/17 01:15:24;;;;;;;;;;;;;;;;;;1905196;28;7072;-63
2024/01/17 01:16:22;;;;;;;;;;;;;;;;;;1903104;28;7155;-64
2024/01/17 01:17:19;;;;;;;;;;;;;;;;;;1904496;28;7005;-62
2024/01/17 01:18:16;;;;;;;;;;;;;;;;;;1904567;28;7024;-64
2024/01/17 01:19:14;;;;;;;;;;;;;;;;;;1904858;28;7150;-64
2024/01/17 01:20:12;;;;;;;;;;;;;;;;;;1905182;28;7048;-64
2024/01/17 01:21:10;;;;;;;;;;;;;;;;;;1911876;28;7008;-64
2024/01/17 01:22:07;;;;;;;;;;;;;;;;;;1906914;28;7089;-65
2024/01/17 01:23:04;;;;;;;;;;;;;;;;;;1904854;28;7143;-64
2024/01/17 01:24:02;;;;;;;;;;;;;;;;;;1904612;28;7136;-65
2024/01/17 01:24:59;;;;;;;;;;;;;;;;;;1909432;28;8075;-65
2024/01/17 01:25:57;;;;;;;;;;;;;;;;;;1906851;28;7039;-64
2024/01/17 01:26:54;;;;;;;;;;;;;;;;;;1904774;28;7012;-64
2024/01/17 01:27:52;;;;;;;;;;;;;;;;;;1906262;28;7284;-62
2024/01/17 01:28:49;;;;;;;;;;;;;;;;;;1904755;28;7245;-64
2024/01/17 01:29:47;;;;;;;;;;;;;;;;;;1904577;28;7764;-65
2024/01/17 01:30:44;;;;;;;;;;;;;;;;;;1905093;28;7114;-64
2024/01/17 01:31:41;;;;;;;;;;;;;;;;;;1912075;28;7008;-64
2024/01/17 01:32:39;;;;;;;;;;;;;;;;;;1906655;28;7096;-64
2024/01/17 01:33:37;;;;;;;;;;;;;;;;;;1904130;28;7123;-64
2024/01/17 01:34:35;;;;;;;;;;;;;;;;;;1904956;28;7023;-64
2024/01/17 01:35:33;;;;;;;;;;;;;;;;;;1908888;28;7020;-63
2024/01/17 01:36:30;;;;;;;;;;;;;;;;;;1907064;28;7038;-64
2024/01/17 01:37:28;;;;;;;;;;;;;;;;;;1904839;28;8014;-64
2024/01/17 01:38:25;;;;;;;;;;;;;;;;;;1905266;28;7276;-63
2024/01/17 01:39:23;;;;;;;;;;;;;;;;;;1905141;28;7084;-64
2024/01/17 01:40:20;;;;;;;;;;;;;;;;;;1909669;28;7082;-64
2024/01/17 01:41:18;;;;;;;;;;;;;;;;;;1912624;28;7087;-64
2024/01/17 01:42:15;;;;;;;;;;;;;;;;;;1911373;28;7267;-65
2024/01/17 01:43:19;;;;;;;;;;;;;;;;;;1906190;28;7016;-65
2024/01/17 01:44:16;;;;;;;;;;;;;;;;;;1907591;28;7016;-64
2024/01/17 01:45:14;;;;;;;;;;;;;;;;;;1911249;28;8055;-65
2024/01/17 01:46:14;;;;;;;;;;;;;;;;;;1910763;28;7007;-62
2024/01/17 01:47:16;;;;;;;;;;;;;;;;;;1912604;28;8014;-63
2024/01/17 01:48:13;;;;;;;;;;;;;;;;;;1912137;28;8110;-65
2024/01/17 01:49:12;;;;;;;;;;;;;;;;;;1912371;28;7115;-64
2024/01/17 01:50:11;;;;;;;;;;;;;;;;;;1911824;28;8111;-64
2024/01/17 01:51:12;;;;;;;;;;;;;;;;;;1912040;28;7024;-64
2024/01/17 01:52:09;;;;;;;;;;;;;;;;;;1904135;28;7028;-63
2024/01/17 01:53:07;;;;;;;;;;;;;;;;;;1904311;28;8000;-64
2024/01/17 01:54:05;;;;;;;;;;;;;;;;;;1906213;28;7449;-65
2024/01/17 01:55:04;;;;;;;;;;;;;;;;;;1912713;28;7031;-65
2024/01/17 01:56:02;;;;;;;;;;;;;;;;;;1908140;28;7111;-64
2024/01/17 01:57:00;;;;;;;;;;;;;;;;;;1904237;28;7020;-66
2024/01/17 01:57:58;;;;;;;;;;;;;;;;;;1904616;28;7095;-65
2024/01/17 01:58:58;;;;;;;;;;;;;;;;;;1904545;28;7045;-64
2024/01/17 01:59:56;;;;;;;;;;;;;;;;;;1906069;28;7199;-63
2024/01/17 02:00:55;;;;;;;;;;;;;;;;;;1912351;28;7041;-64
2024/01/17 02:01:54;;;;;;;;;;;;;;;;;;1909495;28;7131;-64
2024/01/17 02:02:53;;;;;;;;;;;;;;;;;;1903910;28;7036;-65
2024/01/17 02:03:52;;;;;;;;;;;;;;;;;;1904729;28;7044;-64
2024/01/17 02:04:52;;;;;;;;;;;;;;;;;;1904437;28;7111;-63
2024/01/17 02:05:50;;;;;;;;;;;;;;;;;;1903287;28;7048;-63
2024/01/17 02:06:48;;;;;;;;;;;;;;;;;;1904788;28;8049;-64
2024/01/17 02:07:45;;;;;;;;;;;;;;;;;;1911720;28;7011;-65
2024/01/17 02:08:43;;;;;;;;;;;;;;;;;;1912367;28;7012;-64
2024/01/17 02:09:40;;;;;;;;;;;;;;;;;;1902707;28;7096;-63
2024/01/17 02:10:39;;;;;;;;;;;;;;;;;;1904696;28;7130;-66
2024/01/17 02:11:37;;;;;;;;;;;;;;;;;;1904128;28;8052;-63
2024/01/17 02:12:36;;;;;;;;;;;;;;;;;;1905738;28;8090;-63
2024/01/17 02:13:34;;;;;;;;;;;;;;;;;;1908920;28;7040;-64
2024/01/17 02:14:31;;;;;;;;;;;;;;;;;;1904585;28;7088;-64
2024/01/17 02:15:29;;;;;;;;;;;;;;;;;;1909134;28;7031;-65
2024/01/17 02:16:27;;;;;;;;;;;;;;;;;;1907946;28;8069;-63
2024/01/17 02:17:24;;;;;;;;;;;;;;;;;;1906342;28;7011;-65
2024/01/17 02:18:22;;;;;;;;;;;;;;;;;;1905304;28;8013;-65
2024/01/17 02:19:21;;;;;;;;;;;;;;;;;;1909389;28;8051;-64
2024/01/17 02:20:18;;;;;;;;;;;;;;;;;;1910551;28;9729;-65
2024/01/17 02:21:16;;;;;;;;;;;;;;;;;;1911821;28;7112;-63
2024/01/17 02:22:14;;;;;;;;;;;;;;;;;;1905075;28;7340;-64
2024/01/17 02:23:20;;;;;;;;;;;;;;;;;;1910598;28;7020;-64
2024/01/17 02:24:22;;;;;;;;;;;;;;;;;;1911746;28;7108;-63
2024/01/17 02:25:19;;;;;;;;;;;;;;;;;;1908092;28;7020;-64
2024/01/17 02:26:17;;;;;;;;;;;;;;;;;;1905023;28;7008;-64
2024/01/17 02:27:15;;;;;;;;;;;;;;;;;;1906482;28;8126;-64
2024/01/17 02:28:12;;;;;;;;;;;;;;;;;;1905318;28;7142;-64
2024/01/17 02:29:10;;;;;;;;;;;;;;;;;;1903980;28;7024;-63
2024/01/17 02:30:08;;;;;;;;;;;;;;;;;;1910264;28;7003;-64
2024/01/17 02:31:06;;;;;;;;;;;;;;;;;;1904215;28;7003;-65
2024/01/17 02:32:03;;;;;;;;;;;;;;;;;;1907457;28;7007;-64
2024/01/17 02:33:01;;;;;;;;;;;;;;;;;;1912538;28;7174;-64
2024/01/17 02:33:59;;;;;;;;;;;;;;;;;;1911282;28;7042;-64
2024/01/17 02:34:57;;;;;;;;;;;;;;;;;;1910600;28;7433;-63
2024/01/17 02:35:54;;;;;;;;;;;;;;;;;;1911710;28;8015;-66
2024/01/17 02:36:52;;;;;;;;;;;;;;;;;;1912310;28;7044;-64
2024/01/17 02:37:50;;;;;;;;;;;;;;;;;;1907655;28;7138;-63
2024/01/17 02:38:47;;;;;;;;;;;;;;;;;;1905817;28;7016;-65
2024/01/17 02:39:44;;;;;;;;;;;;;;;;;;1912500;28;7122;-64
2024/01/17 02:40:42;;;;;;;;;;;;;;;;;;1911367;28;7122;-63
2024/01/17 02:41:39;;;;;;;;;;;;;;;;;;1910349;28;7128;-65
2024/01/17 02:42:37;;;;;;;;;;;;;;;;;;1911660;28;7012;-65
2024/01/17 02:43:34;;;;;;;;;;;;;;;;;;1909125;28;7007;-63
2024/01/17 02:44:32;;;;;;;;;;;;;;;;;;1909996;28;9101;-64
2024/01/17 02:45:29;;;;;;;;;;;;;;;;;;1911322;28;7228;-64
2024/01/17 02:46:27;;;;;;;;;;;;;;;;;;1911879;28;7301;-65
2024/01/17 02:47:25;;;;;;;;;;;;;;;;;;1912529;28;7094;-66
2024/01/17 02:48:23;;;;;;;;;;;;;;;;;;1904860;28;7097;-64
2024/01/17 02:49:21;;;;;;;;;;;;;;;;;;1902650;28;7129;-63
2024/01/17 02:50:18;;;;;;;;;;;;;;;;;;1903861;28;7011;-64
2024/01/17 02:51:16;;;;;;;;;;;;;;;;;;1904705;28;7142;-64
2024/01/17 02:52:13;;;;;;;;;;;;;;;;;;1906037;28;7015;-64
2024/01/17 02:53:10;;;;;;;;;;;;;;;;;;1911279;28;7280;-63
2024/01/17 02:54:08;;;;;;;;;;;;;;;;;;1904794;28;7045;-64
2024/01/17 02:55:05;;;;;;;;;;;;;;;;;;1904017;28;7146;-64
2024/01/17 02:56:03;;;;;;;;;;;;;;;;;;1904997;28;7147;-64
2024/01/17 02:57:01;;;;;;;;;;;;;;;;;;1904195;28;7012;-64
2024/01/17 02:58:00;;;;;;;;;;;;;;;;;;1904522;28;7004;-64
2024/01/17 02:58:57;;;;;;;;;;;;;;;;;;1904662;28;7011;-64
2024/01/17 02:59:55;;;;;;;;;;;;;;;;;;1904312;28;7036;-64
2024/01/17 03:00:53;;;;;;;;;;;;;;;;;;1905480;28;8030;-64
2024/01/17 03:01:52;;;;;;;;;;;;;;;;;;1903320;28;7373;-65
2024/01/17 03:02:50;;;;;;;;;;;;;;;;;;1904132;28;7107;-63
2024/01/17 03:03:47;;;;;;;;;;;;;;;;;;1904055;28;7098;-64
2024/01/17 03:04:45;;;;;;;;;;;;;;;;;;1903778;28;7148;-66
2024/01/17 03:05:42;;;;;;;;;;;;;;;;;;1904042;28;7012;-65
2024/01/17 03:06:40;;;;;;;;;;;;;;;;;;1904106;28;7118;-63
2024/01/17 03:07:37;;;;;;;;;;;;;;;;;;1904319;28;7040;-63
2024/01/17 03:08:34;;;;;;;;;;;;;;;;;;1904329;28;7112;-64
2024/01/17 03:09:32;;;;;;;;;;;;;;;;;;1903657;28;8101;-64
2024/01/17 03:10:30;;;;;;;;;;;;;;;;;;1905492;28;7099;-63
2024/01/17 03:11:27;;;;;;;;;;;;;;;;;;1911796;28;7015;-63
2024/01/17 03:12:25;;;;;;;;;;;;;;;;;;1912297;28;7011;-63
2024/01/17 03:13:22;;;;;;;;;;;;;;;;;;1910580;28;7156;-62
2024/01/17 03:14:20;;;;;;;;;;;;;;;;;;1904397;28;7049;-64
2024/01/17 03:15:17;;;;;;;;;;;;;;;;;;1903453;28;7095;-63
2024/01/17 03:16:18;;;;;;;;;;;;;;;;;;1911028;28;7011;-64
2024/01/17 03:17:17;;;;;;;;;;;;;;;;;;1904303;28;7019;-64
2024/01/17 03:18:16;;;;;;;;;;;;;;;;;;1903640;28;7017;-63
2024/01/17 03:19:14;;;;;;;;;;;;;;;;;;1904807;28;8055;-64
2024/01/17 03:20:12;;;;;;;;;;;;;;;;;;1910927;28;7361;-65
2024/01/17 03:21:09;;;;;;;;;;;;;;;;;;1911439;28;7032;-64
2024/01/17 03:22:06;;;;;;;;;;;;;;;;;;1905834;28;8064;-65
2024/01/17 03:23:04;;;;;;;;;;;;;;;;;;1917779;28;7783;-64
2024/01/17 03:24:01;;;;;;;;;;;;;;;;;;1920131;28;7012;-64
2024/01/17 03:24:59;;;;;;;;;;;;;;;;;;1913634;28;7005;-63
2024/01/17 03:25:56;;;;;;;;;;;;;;;;;;1909241;28;7104;-64
2024/01/17 03:26:54;;;;;;;;;;;;;;;;;;1904153;28;7082;-63
2024/01/17 03:27:51;;;;;;;;;;;;;;;;;;1909563;28;7008;-65
2024/01/17 03:28:49;;;;;;;;;;;;;;;;;;1909860;28;7092;-64
2024/01/17 03:29:46;;;;;;;;;;;;;;;;;;1904397;28;7012;-65
2024/01/17 03:30:44;;;;;;;;;;;;;;;;;;1903564;28;8122;-64
2024/01/17 03:31:41;;;;;;;;;;;;;;;;;;1903844;28;7469;-63
2024/01/17 03:32:38;;;;;;;;;;;;;;;;;;1904311;28;8080;-64
2024/01/17 03:33:36;;;;;;;;;;;;;;;;;;1905345;28;7037;-64
2024/01/17 03:34:34;;;;;;;;;;;;;;;;;;1911092;28;8039;-63
2024/01/17 03:35:31;;;;;;;;;;;;;;;;;;1905348;28;7020;-63
2024/01/17 03:36:29;;;;;;;;;;;;;;;;;;1906354;28;7149;-64
2024/01/17 03:37:27;;;;;;;;;;;;;;;;;;1905493;28;8019;-63
2024/01/17 03:38:25;;;;;;;;;;;;;;;;;;1911315;28;7008;-64
2024/01/17 03:39:23;;;;;;;;;;;;;;;;;;1909648;28;7044;-64
2024/01/17 03:40:20;;;;;;;;;;;;;;;;;;1906433;28;7047;-63
2024/01/17 03:41:17;;;;;;;;;;;;;;;;;;1904352;28;7016;-63
2024/01/17 03:42:18;;;;;;;;;;;;;;;;;;1902867;28;7045;-64
2024/01/17 03:43:15;;;;;;;;;;;;;;;;;;1902477;28;7015;-65
2024/01/17 03:44:13;;;;;;;;;;;;;;;;;;1905777;28;7121;-64
2024/01/17 03:45:10;;;;;;;;;;;;;;;;;;1910518;28;7005;-63
2024/01/17 03:46:07;;;;;;;;;;;;;;;;;;1909810;28;7331;-63
2024/01/17 03:47:05;;;;;;;;;;;;;;;;;;1905762;28;7007;-63
2024/01/17 03:48:04;;;;;;;;;;;;;;;;;;1903572;28;7004;-64
2024/01/17 03:49:02;;;;;;;;;;;;;;;;;;1903814;28;7008;-65
2024/01/17 03:50:00;;;;;;;;;;;;;;;;;;1903484;28;7045;-64
2024/01/17 03:50:57;;;;;;;;;;;;;;;;;;1906721;28;7022;-64
2024/01/17 03:51:55;;;;;;;;;;;;;;;;;;1911503;28;7012;-64
2024/01/17 03:52:52;;;;;;;;;;;;;;;;;;1903656;28;7025;-63
2024/01/17 03:53:50;;;;;;;;;;;;;;;;;;1904265;28;7008;-64
2024/01/17 03:54:47;;;;;;;;;;;;;;;;;;1904185;28;7086;-63
2024/01/17 03:55:45;;;;;;;;;;;;;;;;;;1902682;28;7013;-66
2024/01/17 03:56:42;;;;;;;;;;;;;;;;;;1903645;28;7187;-64
2024/01/17 03:57:39;;;;;;;;;;;;;;;;;;1905355;28;9096;-64
2024/01/17 03:58:38;;;;;;;;;;;;;;;;;;1903617;28;7007;-64
2024/01/17 03:59:36;;;;;;;;;;;;;;;;;;1903613;28;7986;-65
2024/01/17 04:00:33;;;;;;;;;;;;;;;;;;1903050;28;7044;-64
2024/01/17 04:01:31;;;;;;;;;;;;;;;;;;1903982;28;7297;-64
2024/01/17 04:02:28;;;;;;;;;;;;;;;;;;1903362;28;8027;-65
2024/01/17 04:03:26;;;;;;;;;;;;;;;;;;1903418;28;7021;-65
2024/01/17 04:04:23;;;;;;;;;;;;;;;;;;1904056;28;7012;-64
2024/01/17 04:05:21;;;;;;;;;;;;;;;;;;1903515;28;7837;-65
2024/01/17 04:06:18;;;;;;;;;;;;;;;;;;1903412;28;8025;-64
2024/01/17 04:07:20;;;;;;;;;;;;;;;;;;1903793;28;8007;-64
2024/01/17 04:08:19;;;;;;;;;;;;;;;;;;1903832;28;8058;-63
2024/01/17 04:09:16;;;;;;;;;;;;;;;;;;1907114;28;8011;-64
2024/01/17 04:10:13;;;;;;;;;;;;;;;;;;1903065;28;7048;-64
2024/01/17 04:11:11;;;;;;;;;;;;;;;;;;1910881;28;7090;-65
2024/01/17 04:12:08;;;;;;;;;;;;;;;;;;1907439;28;7024;-64
2024/01/17 04:13:06;;;;;;;;;;;;;;;;;;1904111;28;7148;-64
2024/01/17 04:14:03;;;;;;;;;;;;;;;;;;1904419;28;7027;-64
2024/01/17 04:15:01;;;;;;;;;;;;;;;;;;1905435;28;7108;-64
2024/01/17 04:15:59;;;;;;;;;;;;;;;;;;1904367;28;7112;-65
2024/01/17 04:16:56;;;;;;;;;;;;;;;;;;1905241;28;7121;-64
2024/01/17 04:17:56;;;;;;;;;;;;;;;;;;1905774;28;7014;-64
2024/01/17 04:18:53;;;;;;;;;;;;;;;;;;1912404;28;7027;-65
2024/01/17 04:19:51;;;;;;;;;;;;;;;;;;1919383;28;7522;-64
2024/01/17 04:20:49;;;;;;;;;;;;;;;;;;1912714;28;7132;-64
2024/01/17 04:21:46;;;;;;;;;;;;;;;;;;1906992;28;7200;-64
2024/01/17 04:22:43;;;;;;;;;;;;;;;;;;1904701;28;7401;-64
2024/01/17 04:23:41;;;;;;;;;;;;;;;;;;1904870;28;7032;-63
2024/01/17 04:24:38;;;;;;;;;;;;;;;;;;1905020;28;7032;-65
2024/01/17 04:25:36;;;;;;;;;;;;;;;;;;1906911;28;7005;-64
2024/01/17 04:26:33;;;;;;;;;;;;;;;;;;1912909;28;8027;-64
2024/01/17 04:27:31;;;;;;;;;;;;;;;;;;1912365;28;7273;-63
2024/01/17 04:28:29;;;;;;;;;;;;;;;;;;1908843;28;8102;-63
2024/01/17 04:29:26;;;;;;;;;;;;;;;;;;1905065;28;7007;-64
2024/01/17 04:30:24;;;;;;;;;;;;;;;;;;1905213;28;7110;-64
2024/01/17 04:31:25;;;;;;;;;;;;;;;;;;1910170;28;7044;-64
2024/01/17 04:32:23;;;;;;;;;;;;;;;;;;1909274;28;7012;-64
2024/01/17 04:33:20;;;;;;;;;;;;;;;;;;1912321;28;7007;-63
2024/01/17 04:34:18;;;;;;;;;;;;;;;;;;1912760;28;7012;-63
2024/01/17 04:35:18;;;;;;;;;;;;;;;;;;1913055;28;7178;-64
2024/01/17 04:36:16;;;;;;;;;;;;;;;;;;1911881;28;7044;-64
2024/01/17 04:37:14;;;;;;;;;;;;;;;;;;1905204;28;7458;-63
2024/01/17 04:38:11;;;;;;;;;;;;;;;;;;1906044;28;7335;-63
2024/01/17 04:39:10;;;;;;;;;;;;;;;;;;1908327;28;7156;-64
2024/01/17 04:40:08;;;;;;;;;;;;;;;;;;1912724;28;8026;-64
2024/01/17 04:41:05;;;;;;;;;;;;;;;;;;1911598;28;8870;-63
2024/01/17 04:42:03;;;;;;;;;;;;;;;;;;1911957;28;8026;-64
2024/01/17 04:43:00;;;;;;;;;;;;;;;;;;1906264;28;8060;-65
2024/01/17 04:43:58;;;;;;;;;;;;;;;;;;1908070;28;7004;-65
2024/01/17 04:44:55;;;;;;;;;;;;;;;;;;1910933;28;7320;-63
2024/01/17 04:45:53;;;;;;;;;;;;;;;;;;1912351;28;8054;-65
2024/01/17 04:46:50;;;;;;;;;;;;;;;;;;1909523;28;7007;-64
2024/01/17 04:47:48;;;;;;;;;;;;;;;;;;1910204;28;7406;-63
2024/01/17 04:48:46;;;;;;;;;;;;;;;;;;1907278;28;7066;-63
2024/01/17 04:49:44;;;;;;;;;;;;;;;;;;1905016;28;7016;-65
2024/01/17 04:50:42;;;;;;;;;;;;;;;;;;1905836;28;7801;-63
2024/01/17 04:51:41;;;;;;;;;;;;;;;;;;1903746;28;7091;-64
2024/01/17 04:52:39;;;;;;;;;;;;;;;;;;1902938;28;7160;-64
2024/01/17 04:53:37;;;;;;;;;;;;;;;;;;1905020;28;7017;-63
2024/01/17 04:54:35;;;;;;;;;;;;;;;;;;1904710;28;7035;-64
2024/01/17 04:55:33;;;;;;;;;;;;;;;;;;1904839;28;9298;-64
2024/01/17 04:56:31;;;;;;;;;;;;;;;;;;1906909;28;7044;-64
2024/01/17 04:57:28;;;;;;;;;;;;;;;;;;1905092;28;7080;-64
2024/01/17 04:58:26;;;;;;;;;;;;;;;;;;1904857;28;7046;-63
2024/01/17 04:59:23;;;;;;;;;;;;;;;;;;1905722;28;7104;-64
2024/01/17 05:00:21;;;;;;;;;;;;;;;;;;1905191;28;7036;-64
2024/01/17 05:01:18;;;;;;;;;;;;;;;;;;1905862;28;7028;-64
2024/01/17 05:02:16;;;;;;;;;;;;;;;;;;1910369;28;8488;-65
2024/01/17 05:03:14;;;;;;;;;;;;;;;;;;1906855;28;7306;-63
2024/01/17 05:04:11;;;;;;;;;;;;;;;;;;1912965;28;7027;-64
2024/01/17 05:05:10;;;;;;;;;;;;;;;;;;1904391;28;7011;-63
2024/01/17 05:06:08;;;;;;;;;;;;;;;;;;1905106;28;7308;-64
2024/01/17 05:07:07;;;;;;;;;;;;;;;;;;1910198;28;8091;-64
2024/01/17 05:08:04;;;;;;;;;;;;;;;;;;1911990;28;7143;-63
2024/01/17 05:09:07;;;;;;;;;;;;;;;;;;1912672;28;7016;-63
2024/01/17 05:10:05;;;;;;;;;;;;;;;;;;1910020;28;7044;-64
2024/01/17 05:11:02;;;;;;;;;;;;;;;;;;1905104;28;7013;-63
2024/01/17 05:12:00;;;;;;;;;;;;;;;;;;1905603;28;7352;-64
2024/01/17 05:12:57;;;;;;;;;;;;;;;;;;1904442;28;7012;-64
2024/01/17 05:13:55;;;;;;;;;;;;;;;;;;1904465;28;7032;-64
2024/01/17 05:14:52;;;;;;;;;;;;;;;;;;1904479;28;8087;-64
2024/01/17 05:15:50;;;;;;;;;;;;;;;;;;1906805;28;7150;-63
2024/01/17 05:16:47;;;;;;;;;;;;;;;;;;1903347;28;7016;-64
2024/01/17 05:17:45;;;;;;;;;;;;;;;;;;1904709;28;7017;-64
2024/01/17 05:18:42;;;;;;;;;;;;;;;;;;1905314;28;8114;-65
2024/01/17 05:19:40;;;;;;;;;;;;;;;;;;1905157;28;7016;-64
2024/01/17 05:20:38;;;;;;;;;;;;;;;;;;1908424;28;7012;-64
2024/01/17 05:21:36;;;;;;;;;;;;;;;;;;1910946;28;8025;-65
2024/01/17 05:22:39;;;;;;;;;;;;;;;;;;1904477;28;8102;-63
2024/01/17 05:23:38;;;;;;;;;;;;;;;;;;1906047;28;8078;-64
2024/01/17 05:24:35;;;;;;;;;;;;;;;;;;1911728;28;7012;-64
2024/01/17 05:25:33;;;;;;;;;;;;;;;;;;1911907;28;8402;-64
2024/01/17 05:26:30;;;;;;;;;;;;;;;;;;1912936;28;7027;-62
2024/01/17 05:27:28;;;;;;;;;;;;;;;;;;1909478;28;7009;-65
2024/01/17 05:28:25;;;;;;;;;;;;;;;;;;1907160;28;7004;-65
2024/01/17 05:29:23;;;;;;;;;;;;;;;;;;1911935;28;7091;-63
2024/01/17 05:30:21;;;;;;;;;;;;;;;;;;1912188;28;7004;-65
2024/01/17 05:31:18;;;;;;;;;;;;;;;;;;1909918;28;7095;-64
2024/01/17 05:32:16;;;;;;;;;;;;;;;;;;1913293;28;7063;-64
2024/01/17 05:33:14;;;;;;;;;;;;;;;;;;1912309;28;7007;-66
2024/01/17 05:34:11;;;;;;;;;;;;;;;;;;1907644;28;7113;-63
2024/01/17 05:35:09;;;;;;;;;;;;;;;;;;1905186;28;7008;-64
2024/01/17 05:36:07;;;;;;;;;;;;;;;;;;1903960;28;7020;-65
2024/01/17 05:37:06;;;;;;;;;;;;;;;;;;1905018;28;7561;-64
2024/01/17 05:38:03;;;;;;;;;;;;;;;;;;1904874;28;7041;-64
2024/01/17 05:39:01;;;;;;;;;;;;;;;;;;1905004;28;8026;-64
2024/01/17 05:39:58;;;;;;;;;;;;;;;;;;1906928;28;8036;-63
2024/01/17 05:40:56;;;;;;;;;;;;;;;;;;1904612;28;7021;-65
2024/01/17 05:41:54;;;;;;;;;;;;;;;;;;1905168;28;7008;-62
2024/01/17 05:42:51;;;;;;;;;;;;;;;;;;1908609;28;7102;-64
2024/01/17 05:43:49;;;;;;;;;;;;;;;;;;1913215;28;7032;-63
2024/01/17 05:44:46;;;;;;;;;;;;;;;;;;1906547;28;8098;-64
2024/01/17 05:45:43;;;;;;;;;;;;;;;;;;1904767;28;7055;-64
2024/01/17 05:46:41;;;;;;;;;;;;;;;;;;1905564;28;7085;-64
2024/01/17 05:47:38;;;;;;;;;;;;;;;;;;1912748;28;7052;-64
2024/01/17 05:48:36;;;;;;;;;;;;;;;;;;1913286;28;7008;-64
2024/01/17 05:49:33;;;;;;;;;;;;;;;;;;1912716;28;7227;-63
2024/01/17 05:50:31;;;;;;;;;;;;;;;;;;1910552;28;8040;-64
2024/01/17 05:51:28;;;;;;;;;;;;;;;;;;1905191;28;7070;-63
2024/01/17 05:52:26;;;;;;;;;;;;;;;;;;1903990;28;7088;-63
2024/01/17 05:53:23;;;;;;;;;;;;;;;;;;1905360;28;8053;-64
2024/01/17 05:54:20;;;;;;;;;;;;;;;;;;1905624;28;8625;-65
2024/01/17 05:55:20;;;;;;;;;;;;;;;;;;1904992;28;8051;-65
2024/01/17 05:56:17;;;;;;;;;;;;;;;;;;1904770;28;7044;-64
2024/01/17 05:57:15;;;;;;;;;;;;;;;;;;1905354;28;7045;-64
2024/01/17 05:58:12;;;;;;;;;;;;;;;;;;1903449;28;7040;-63
2024/01/17 05:59:10;;;;;;;;;;;;;;;;;;1907580;28;7094;-64
2024/01/17 06:00:09;;;;;;;;;;;;;;;;;;1906748;28;7036;-65
2024/01/17 06:01:07;;;;;;;;;;;;;;;;;;1905562;28;7058;-64
2024/01/17 06:02:04;;;;;;;;;;;;;;;;;;1904839;28;7008;-64
2024/01/17 06:03:02;;;;;;;;;;;;;;;;;;1905356;28;7152;-65
2024/01/17 06:03:59;;;;;;;;;;;;;;;;;;1905168;28;7021;-65
2024/01/17 06:04:57;;;;;;;;;;;;;;;;;;1904636;28;7383;-64
2024/01/17 06:05:54;;;;;;;;;;;;;;;;;;1905041;28;7132;-64
2024/01/17 06:06:52;;;;;;;;;;;;;;;;;;1909685;28;7028;-64
2024/01/17 06:07:49;;;;;;;;;;;;;;;;;;1912939;28;8051;-64
2024/01/17 06:08:47;;;;;;;;;;;;;;;;;;1911839;28;8025;-64
2024/01/17 06:09:44;;;;;;;;;;;;;;;;;;1912480;28;7111;-64
2024/01/17 06:10:42;;;;;;;;;;;;;;;;;;1912547;28;7316;-63
2024/01/17 06:11:39;;;;;;;;;;;;;;;;;;1912746;28;7035;-63
2024/01/17 06:12:37;;;;;;;;;;;;;;;;;;1912391;28;7124;-64
2024/01/17 06:13:34;;;;;;;;;;;;;;;;;;1912356;28;8033;-64
2024/01/17 06:14:32;;;;;;;;;;;;;;;;;;1908720;28;7007;-63
2024/01/17 06:15:29;;;;;;;;;;;;;;;;;;1905265;28;7021;-63
2024/01/17 06:16:27;;;;;;;;;;;;;;;;;;1912562;28;7043;-62
2024/01/17 06:17:24;;;;;;;;;;;;;;;;;;1912171;28;7025;-64
2024/01/17 06:18:22;;;;;;;;;;;;;;;;;;1911647;28;7135;-65
2024/01/17 06:19:20;;;;;;;;;;;;;;;;;;1912237;28;7011;-65
2024/01/17 06:20:18;;;;;;;;;;;;;;;;;;1903591;28;7036;-63
2024/01/17 06:21:15;;;;;;;;;;;;;;;;;;1904864;28;7012;-64
2024/01/17 06:22:17;;;;;;;;;;;;;;;;;;1904587;28;7005;-63
2024/01/17 06:23:15;;;;;;;;;;;;;;;;;;1908602;28;7363;-63
2024/01/17 06:24:12;;;;;;;;;;;;;;;;;;1910094;28;7009;-65
2024/01/17 06:25:10;;;;;;;;;;;;;;;;;;1904780;28;7012;-65
2024/01/17 06:26:08;;;;;;;;;;;;;;;;;;1904010;28;7053;-63
2024/01/17 06:27:06;;;;;;;;;;;;;;;;;;1904755;28;7008;-64
2024/01/17 06:28:03;;;;;;;;;;;;;;;;;;1909921;28;7124;-64
2024/01/17 06:29:01;;;;;;;;;;;;;;;;;;1905275;28;7102;-65
2024/01/17 06:29:58;;;;;;;;;;;;;;;;;;1904560;28;7052;-64
2024/01/17 06:30:56;;;;;;;;;;;;;;;;;;1904829;28;7012;-64
2024/01/17 06:31:53;;;;;;;;;;;;;;;;;;1904389;28;7112;-63
2024/01/17 06:32:51;;;;;;;;;;;;;;;;;;1904519;28;7013;-64
2024/01/17 06:33:48;;;;;;;;;;;;;;;;;;1905045;28;7008;-64
2024/01/17 06:34:46;;;;;;;;;;;;;;;;;;1906636;28;7106;-64
2024/01/17 06:35:46;;;;;;;;;;;;;;;;;;1904904;28;7053;-64
2024/01/17 06:36:44;;;;;;;;;;;;;;;;;;1903922;28;7013;-65
2024/01/17 06:37:42;;;;;;;;;;;;;;;;;;1904422;28;8002;-65
2024/01/17 06:38:39;;;;;;;;;;;;;;;;;;1904793;28;7047;-64
2024/01/17 06:39:37;;;;;;;;;;;;;;;;;;1904834;28;8050;-63
2024/01/17 06:40:34;;;;;;;;;;;;;;;;;;1910141;28;7015;-64
2024/01/17 06:41:36;;;;;;;;;;;;;;;;;;1904269;28;7131;-64